Time;durP1;ratioP1;P1;durP2;ratioP2;P2;SDS_P1;SDS_P2;PMS_P1;PMS_P2;Temp;Humidity;BMP_temperature;BMP_pressure;BME280_temperature;BME280_humidity;BME280_pressure;Samples;Min_cycle;Max_cycle;Signal;HPM_P1;HPM_P2
2024/01/08 00:00:35;;;;;;;6.53;4.60;;;;;;;;;;5153696;27;20510;-54
2024/01/08 00:03:02;;;;;;;8.68;4.22;;;;;;;;;;5153330;27;20062;-52
2024/01/08 00:05:29;;;;;;;6.07;4.30;;;;;;;;;;5153786;27;20050;-52
2024/01/08 00:07:56;;;;;;;5.13;4.22;;;;;;;;;;5153533;27;20177;-55
2024/01/08 00:10:23;;;;;;;5.60;4.38;;;;;;;;;;5153305;27;20062;-53
2024/01/08 00:12:50;;;;;;;9.20;4.78;;;;;;;;;;5153259;27;20047;-53
2024/01/08 00:15:17;;;;;;;5.72;4.25;;;;;;;;;;5153597;27;20399;-55
2024/01/08 00:17:44;;;;;;;6.30;4.82;;;;;;;;;;5153011;27;20077;-54
2024/01/08 00:20:11;;;;;;;6.03;4.40;;;;;;;;;;5153687;27;20053;-52
2024/01/08 00:22:38;;;;;;;6.18;4.22;;;;;;;;;;5155391;27;20411;-55
2024/01/08 00:25:06;;;;;;;5.82;4.30;;;;;;;;;;5157576;27;20054;-53
2024/01/08 00:27:34;;;;;;;5.65;3.83;;;;;;;;;;5157979;27;20062;-55
2024/01/08 00:30:01;;;;;;;4.95;4.15;;;;;;;;;;5157886;27;20051;-53
2024/01/08 00:32:27;;;;;;;5.05;4.10;;;;;;;;;;5157440;27;20050;-53
2024/01/08 00:34:54;;;;;;;5.55;3.80;;;;;;;;;;5157726;27;20050;-51
2024/01/08 00:37:21;;;;;;;7.80;4.43;;;;;;;;;;5157739;27;20050;-54
2024/01/08 00:39:48;;;;;;;5.90;4.18;;;;;;;;;;5157477;27;20074;-53
2024/01/08 00:42:16;;;;;;;5.88;4.20;;;;;;;;;;5157022;27;20046;-54
2024/01/08 00:44:43;;;;;;;6.25;4.40;;;;;;;;;;5156857;27;20055;-53
2024/01/08 00:47:10;;;;;;;5.13;3.92;;;;;;;;;;5157145;27;20047;-53
2024/01/08 00:49:37;;;;;;;6.75;4.00;;;;;;;;;;5157395;27;20069;-51
2024/01/08 00:52:04;;;;;;;5.75;4.38;;;;;;;;;;5156683;27;20057;-53
2024/01/08 00:54:31;;;;;;;6.13;4.10;;;;;;;;;;5157086;27;20050;-55
2024/01/08 00:56:58;;;;;;;6.07;4.70;;;;;;;;;;5157053;27;20050;-52
2024/01/08 00:59:26;;;;;;;6.10;4.30;;;;;;;;;;5156952;27;20403;-54
2024/01/08 01:01:53;;;;;;;6.80;4.65;;;;;;;;;;5156884;27;20058;-53
2024/01/08 01:04:20;;;;;;;5.32;4.35;;;;;;;;;;5157233;27;20043;-53
2024/01/08 01:06:47;;;;;;;7.13;4.47;;;;;;;;;;5156869;27;20050;-52
2024/01/08 01:09:13;;;;;;;7.22;4.82;;;;;;;;;;5157014;27;20065;-54
2024/01/08 01:11:40;;;;;;;6.00;4.65;;;;;;;;;;5156775;27;20123;-53
2024/01/08 01:14:07;;;;;;;6.28;5.00;;;;;;;;;;5157042;27;20050;-52
2024/01/08 01:16:35;;;;;;;7.40;5.20;;;;;;;;;;5156693;27;20051;-53
2024/01/08 01:19:02;;;;;;;6.80;4.93;;;;;;;;;;5156872;27;20062;-52
2024/01/08 01:21:29;;;;;;;6.75;5.13;;;;;;;;;;5156691;27;20424;-52
2024/01/08 01:23:56;;;;;;;5.80;4.80;;;;;;;;;;5156516;27;20054;-50
2024/01/08 01:26:22;;;;;;;7.78;5.53;;;;;;;;;;5156884;27;20494;-52
2024/01/08 01:28:49;;;;;;;6.57;5.30;;;;;;;;;;5156363;27;20046;-53
2024/01/08 01:31:16;;;;;;;6.95;5.15;;;;;;;;;;5156552;27;20051;-51
2024/01/08 01:33:44;;;;;;;7.22;5.85;;;;;;;;;;5155598;27;20047;-54
2024/01/08 01:36:11;;;;;;;7.32;4.82;;;;;;;;;;5156527;27;20047;-51
2024/01/08 01:38:38;;;;;;;7.43;5.50;;;;;;;;;;5156331;27;20408;-51
2024/01/08 01:41:05;;;;;;;7.70;5.32;;;;;;;;;;5156040;27;20057;-53
2024/01/08 01:43:32;;;;;;;9.80;5.75;;;;;;;;;;5156234;27;20051;-51
2024/01/08 01:46:03;;;;;;;6.85;5.20;;;;;;;;;;5156382;27;20050;-54
2024/01/08 01:48:30;;;;;;;8.02;5.47;;;;;;;;;;5156199;27;20161;-53
2024/01/08 01:50:58;;;;;;;9.55;6.00;;;;;;;;;;5155973;27;20051;-53
2024/01/08 01:53:25;;;;;;;6.47;5.13;;;;;;;;;;5156109;27;20051;-54
2024/01/08 01:55:53;;;;;;;8.00;5.72;;;;;;;;;;5155783;27;20053;-53
2024/01/08 01:58:20;;;;;;;6.70;5.88;;;;;;;;;;5156030;27;20058;-55
2024/01/08 02:00:47;;;;;;;7.63;5.45;;;;;;;;;;5156279;27;20050;-51
2024/01/08 02:03:14;;;;;;;7.70;5.93;;;;;;;;;;5155809;27;20057;-53
2024/01/08 02:05:41;;;;;;;7.38;5.60;;;;;;;;;;5155832;27;20050;-52
2024/01/08 02:08:10;;;;;;;9.30;6.13;;;;;;;;;;5155540;27;20100;-55
2024/01/08 02:10:40;;;;;;;7.65;5.85;;;;;;;;;;5155994;27;20399;-50
2024/01/08 02:13:06;;;;;;;6.45;5.63;;;;;;;;;;5155693;27;20076;-50
2024/01/08 02:15:33;;;;;;;8.25;6.45;;;;;;;;;;5155570;27;20062;-53
2024/01/08 02:18:00;;;;;;;8.70;6.10;;;;;;;;;;5155417;27;20058;-50
2024/01/08 02:20:27;;;;;;;8.60;5.95;;;;;;;;;;5155844;27;20046;-54
2024/01/08 02:22:58;;;;;;;8.45;6.53;;;;;;;;;;5155284;27;20057;-54
2024/01/08 02:25:25;;;;;;;8.48;6.70;;;;;;;;;;5155321;27;20074;-53
2024/01/08 02:27:52;;;;;;;8.20;6.82;;;;;;;;;;5155077;27;20050;-52
2024/01/08 02:30:19;;;;;;;8.35;6.40;;;;;;;;;;5155566;27;20075;-53
2024/01/08 02:32:46;;;;;;;9.07;6.45;;;;;;;;;;5155543;27;20061;-52
2024/01/08 02:35:12;;;;;;;10.80;6.85;;;;;;;;;;5155245;27;20487;-54
2024/01/08 02:37:39;;;;;;;9.82;7.35;;;;;;;;;;5155015;27;20050;-53
2024/01/08 02:40:08;;;;;;;9.73;7.00;;;;;;;;;;5155313;27;20054;-53
2024/01/08 02:42:38;;;;;;;9.70;6.82;;;;;;;;;;5155292;27;20057;-54
2024/01/08 02:45:05;;;;;;;;;;;;;;;;;;5155887;27;20054;-53
2024/01/08 02:47:34;;;;;;;7.90;6.80;;;;;;;;;;5155276;27;19919;-52
2024/01/08 02:50:01;;;;;;;8.73;6.50;;;;;;;;;;5155060;27;20054;-51
2024/01/08 02:52:28;;;;;;;11.50;7.68;;;;;;;;;;5154506;27;20051;-54
2024/01/08 02:54:55;;;;;;;10.73;7.30;;;;;;;;;;5154918;27;20050;-51
2024/01/08 02:57:24;;;;;;;9.80;7.53;;;;;;;;;;5154636;27;20053;-53
2024/01/08 02:59:50;;;;;;;9.95;7.15;;;;;;;;;;5155133;27;20419;-52
2024/01/08 03:02:17;;;;;;;9.80;6.80;;;;;;;;;;5154843;27;20502;-53
2024/01/08 03:04:44;;;;;;;9.77;7.35;;;;;;;;;;5154781;27;20471;-53
2024/01/08 03:07:11;;;;;;;10.80;7.35;;;;;;;;;;5154791;27;20475;-53
2024/01/08 03:09:37;;;;;;;8.98;7.47;;;;;;;;;;5155052;27;20058;-54
2024/01/08 03:12:04;;;;;;;9.05;7.07;;;;;;;;;;5154559;27;20054;-51
2024/01/08 03:14:33;;;;;;;8.98;7.05;;;;;;;;;;5154868;27;20051;-54
2024/01/08 03:16:59;;;;;;;9.65;7.30;;;;;;;;;;5154698;27;20055;-51
2024/01/08 03:19:27;;;;;;;8.88;6.97;;;;;;;;;;5154757;27;20054;-51
2024/01/08 03:21:53;;;;;;;9.32;6.88;;;;;;;;;;5154549;27;20061;-57
2024/01/08 03:24:21;;;;;;;10.25;7.40;;;;;;;;;;5154249;27;20050;-53
2024/01/08 03:26:47;;;;;;;10.50;7.63;;;;;;;;;;5152294;27;20059;-52
2024/01/08 03:29:14;;;;;;;8.40;7.30;;;;;;;;;;5154167;27;20471;-53
2024/01/08 03:31:43;;;;;;;9.75;7.18;;;;;;;;;;5153814;27;20053;-51
2024/01/08 03:34:10;;;;;;;8.77;7.80;;;;;;;;;;5154128;27;20169;-51
2024/01/08 03:36:37;;;;;;;9.98;7.78;;;;;;;;;;5153955;27;20046;-52
2024/01/08 03:39:03;;;;;;;10.82;8.20;;;;;;;;;;5154038;27;20057;-50
2024/01/08 03:41:30;;;;;;;10.35;7.65;;;;;;;;;;5154263;27;20062;-52
2024/01/08 03:43:57;;;;;;;9.88;7.28;;;;;;;;;;5153900;27;20062;-53
2024/01/08 03:46:24;;;;;;;10.40;8.02;;;;;;;;;;5153948;27;20047;-54
2024/01/08 03:48:52;;;;;;;9.27;7.63;;;;;;;;;;5154080;27;20046;-51
2024/01/08 03:51:19;;;;;;;8.18;7.03;;;;;;;;;;5153826;27;20510;-50
2024/01/08 03:53:45;;;;;;;10.27;7.50;;;;;;;;;;5153880;27;20132;-53
2024/01/08 03:56:11;;;;;;;11.48;7.93;;;;;;;;;;5153754;27;20047;-51
2024/01/08 03:58:38;;;;;;;10.57;7.40;;;;;;;;;;5152973;27;20077;-53
2024/01/08 04:01:05;;;;;;;10.50;7.15;;;;;;;;;;5154026;27;20480;-54
2024/01/08 04:03:32;;;;;;;9.68;7.45;;;;;;;;;;5154180;27;20050;-53
2024/01/08 04:06:00;;;;;;;10.52;7.78;;;;;;;;;;5154194;27;20046;-53
2024/01/08 04:08:27;;;;;;;10.23;7.22;;;;;;;;;;5153702;27;20055;-52
2024/01/08 04:10:53;;;;;;;11.80;8.80;;;;;;;;;;5153514;27;20050;-52
2024/01/08 04:13:20;;;;;;;10.98;8.40;;;;;;;;;;5153911;27;20047;-53
2024/01/08 04:15:47;;;;;;;11.77;7.90;;;;;;;;;;5153829;27;20051;-54
2024/01/08 04:18:14;;;;;;;9.50;7.75;;;;;;;;;;5153701;27;20043;-53
2024/01/08 04:20:41;;;;;;;9.63;7.55;;;;;;;;;;5153521;27;20517;-52
2024/01/08 04:23:09;;;;;;;10.35;7.38;;;;;;;;;;5153682;27;20408;-51
2024/01/08 04:25:36;;;;;;;8.52;7.07;;;;;;;;;;5153621;27;20054;-52
2024/01/08 04:28:03;;;;;;;11.27;8.23;;;;;;;;;;5153809;27;20891;-54
2024/01/08 04:30:29;;;;;;;10.48;7.57;;;;;;;;;;5153443;27;20055;-52
2024/01/08 04:32:56;;;;;;;10.55;7.97;;;;;;;;;;5153561;27;20058;-50
2024/01/08 04:35:23;;;;;;;9.73;7.78;;;;;;;;;;5153340;27;20407;-50
2024/01/08 04:37:50;;;;;;;11.05;7.90;;;;;;;;;;5153386;27;20471;-53
2024/01/08 04:40:18;;;;;;;10.10;8.18;;;;;;;;;;5153707;27;20063;-53
2024/01/08 04:42:45;;;;;;;9.07;7.72;;;;;;;;;;5153621;27;20058;-53
2024/01/08 04:45:11;;;;;;;10.63;7.95;;;;;;;;;;5153371;27;20055;-53
2024/01/08 04:47:38;;;;;;;8.32;6.68;;;;;;;;;;5153365;27;20054;-54
2024/01/08 04:50:07;;;;;;;9.60;7.63;;;;;;;;;;5153618;27;20050;-54
2024/01/08 04:52:34;;;;;;;9.55;7.30;;;;;;;;;;5153116;27;20050;-53
2024/01/08 04:55:03;;;;;;;9.68;7.60;;;;;;;;;;5153919;27;20054;-55
2024/01/08 04:57:31;;;;;;;10.27;7.82;;;;;;;;;;5153495;27;20051;-51
2024/01/08 04:59:58;;;;;;;10.50;7.38;;;;;;;;;;5153907;27;20051;-51
2024/01/08 05:02:25;;;;;;;9.75;7.32;;;;;;;;;;5153414;27;20055;-54
2024/01/08 05:04:52;;;;;;;9.88;6.95;;;;;;;;;;5153709;27;20055;-53
2024/01/08 05:07:18;;;;;;;13.15;8.40;;;;;;;;;;5153460;27;20058;-51
2024/01/08 05:09:45;;;;;;;9.18;7.50;;;;;;;;;;5155132;27;20502;-51
2024/01/08 05:12:12;;;;;;;10.18;7.50;;;;;;;;;;5156647;27;20509;-51
2024/01/08 05:14:40;;;;;;;9.20;7.55;;;;;;;;;;5156976;27;20063;-51
2024/01/08 05:17:07;;;;;;;9.18;7.82;;;;;;;;;;5157166;27;20526;-50
2024/01/08 05:19:34;;;;;;;9.32;7.72;;;;;;;;;;5156935;27;20047;-51
2024/01/08 05:22:00;;;;;;;10.05;7.57;;;;;;;;;;5156951;27;20104;-52
2024/01/08 05:24:27;;;;;;;10.23;7.63;;;;;;;;;;5156692;27;20073;-54
2024/01/08 05:26:54;;;;;;;10.07;7.55;;;;;;;;;;5156244;27;20046;-54
2024/01/08 05:29:21;;;;;;;10.20;7.70;;;;;;;;;;5156375;27;20062;-53
2024/01/08 05:31:49;;;;;;;9.75;7.15;;;;;;;;;;5156417;27;20062;-54
2024/01/08 05:34:16;;;;;;;10.82;7.82;;;;;;;;;;5156603;27;20066;-52
2024/01/08 05:36:42;;;;;;;10.95;7.72;;;;;;;;;;5156257;27;20525;-54
2024/01/08 05:39:09;;;;;;;9.32;7.38;;;;;;;;;;5155781;27;20042;-53
2024/01/08 05:41:39;;;;;;;10.00;7.13;;;;;;;;;;5155668;27;20051;-53
2024/01/08 05:44:06;;;;;;;;;;;;;;;;;;5156817;27;20047;-52
2024/01/08 05:46:32;;;;;;;11.13;8.50;;;;;;;;;;5156035;27;20399;-51
2024/01/08 05:49:00;;;;;;;9.02;6.75;;;;;;;;;;5156073;27;20070;-51
2024/01/08 05:51:28;;;;;;;9.65;7.45;;;;;;;;;;5155956;27;20054;-54
2024/01/08 05:53:55;;;;;;;10.35;7.45;;;;;;;;;;5155803;27;20072;-53
2024/01/08 05:56:21;;;;;;;8.85;7.07;;;;;;;;;;5156020;27;20334;-55
2024/01/08 05:58:48;;;;;;;9.73;7.18;;;;;;;;;;5155898;27;20050;-52
2024/01/08 06:01:17;;;;;;;11.25;7.18;;;;;;;;;;5156189;27;20502;-53
2024/01/08 06:03:44;;;;;;;10.48;7.35;;;;;;;;;;5155844;27;20400;-53
2024/01/08 06:06:13;;;;;;;9.43;7.05;;;;;;;;;;5155318;27;20058;-52
2024/01/08 06:08:40;;;;;;;8.18;7.10;;;;;;;;;;5156118;27;20050;-52
2024/01/08 06:11:07;;;;;;;9.68;7.55;;;;;;;;;;5155417;27;20058;-54
2024/01/08 06:13:35;;;;;;;8.90;6.72;;;;;;;;;;5155683;27;20046;-52
2024/01/08 06:16:02;;;;;;;10.15;6.85;;;;;;;;;;5155930;27;20399;-53
2024/01/08 06:18:29;;;;;;;10.85;7.70;;;;;;;;;;5155657;27;20047;-53
2024/01/08 06:20:56;;;;;;;9.05;7.28;;;;;;;;;;5155141;27;20057;-52
2024/01/08 06:23:25;;;;;;;8.90;6.38;;;;;;;;;;5155444;27;20051;-53
2024/01/08 06:25:52;;;;;;;9.50;6.83;;;;;;;;;;5135133;27;20077;-54
2024/01/08 06:28:19;;;;;;;8.73;6.63;;;;;;;;;;5134540;27;20491;-51
2024/01/08 06:30:45;;;;;;;8.98;6.70;;;;;;;;;;5134670;27;20055;-51
2024/01/08 06:33:12;;;;;;;10.65;8.05;;;;;;;;;;5134807;27;20392;-56
2024/01/08 06:35:40;;;;;;;7.93;5.90;;;;;;;;;;5134404;27;20415;-51
2024/01/08 06:38:06;;;;;;;8.82;6.00;;;;;;;;;;5134582;27;20384;-51
2024/01/08 06:40:34;;;;;;;7.72;6.00;;;;;;;;;;5134286;27;20046;-54
2024/01/08 06:43:01;;;;;;;7.47;5.57;;;;;;;;;;5134832;27;20051;-52
2024/01/08 06:45:27;;;;;;;8.18;5.85;;;;;;;;;;5134497;27;20507;-54
2024/01/08 06:47:54;;;;;;;7.57;5.55;;;;;;;;;;5134401;27;20079;-52
2024/01/08 06:50:21;;;;;;;7.55;5.45;;;;;;;;;;5134506;27;20507;-53
2024/01/08 06:52:48;;;;;;;10.80;6.32;;;;;;;;;;5133800;27;20558;-52
2024/01/08 06:55:15;;;;;;;7.85;5.43;;;;;;;;;;5134041;27;20062;-53
2024/01/08 06:57:43;;;;;;;7.18;5.18;;;;;;;;;;5133797;27;20058;-54
2024/01/08 07:00:10;;;;;;;7.65;5.85;;;;;;;;;;5134416;27;20047;-52
2024/01/08 07:02:37;;;;;;;6.93;5.80;;;;;;;;;;5134136;27;20062;-51
2024/01/08 07:05:05;;;;;;;9.38;5.95;;;;;;;;;;5134121;27;20069;-52
2024/01/08 07:07:31;;;;;;;7.43;5.65;;;;;;;;;;5133771;27;20074;-54
2024/01/08 07:09:58;;;;;;;7.45;5.88;;;;;;;;;;5134209;27;20047;-52
2024/01/08 07:12:25;;;;;;;7.35;5.32;;;;;;;;;;5133881;27;20381;-52
2024/01/08 07:14:53;;;;;;;7.53;5.05;;;;;;;;;;5134165;27;20054;-54
2024/01/08 07:17:20;;;;;;;7.60;5.55;;;;;;;;;;5133580;27;20062;-54
2024/01/08 07:19:47;;;;;;;8.20;5.93;;;;;;;;;;5134155;27;20043;-54
2024/01/08 07:25:05;;;;;;;7.93;5.35;;;;;;;;;;5146454;27;20073;-53
2024/01/08 07:27:32;;;;;;;8.07;6.38;;;;;;;;;;5153457;27;20054;-53
2024/01/08 07:30:00;;;;;;;9.05;5.93;;;;;;;;;;5153447;27;20046;-54
2024/01/08 07:32:28;;;;;;;7.70;5.63;;;;;;;;;;5152011;27;20062;-54
2024/01/08 07:34:55;;;;;;;6.55;5.40;;;;;;;;;;5155259;27;20054;-53
2024/01/08 07:37:22;;;;;;;7.97;5.28;;;;;;;;;;5150611;27;20054;-51
2024/01/08 07:39:49;;;;;;;6.38;4.90;;;;;;;;;;5148959;27;20055;-53
2024/01/08 07:42:16;;;;;;;7.65;5.47;;;;;;;;;;5146890;27;20402;-53
2024/01/08 07:44:43;;;;;;;7.90;5.70;;;;;;;;;;5149004;27;20043;-54
2024/01/08 07:47:11;;;;;;;8.98;6.18;;;;;;;;;;5149460;27;20060;-53
2024/01/08 07:49:38;;;;;;;8.85;6.78;;;;;;;;;;5148307;27;20046;-51
2024/01/08 07:52:05;;;;;;;12.07;6.82;;;;;;;;;;5143791;27;20051;-53
2024/01/08 07:54:32;;;;;;;10.48;7.03;;;;;;;;;;5147772;27;20073;-52
2024/01/08 07:56:59;;;;;;;11.02;7.47;;;;;;;;;;5145166;27;20050;-52
2024/01/08 07:59:26;;;;;;;11.40;7.70;;;;;;;;;;5146384;27;20047;-53
2024/01/08 08:01:52;;;;;;;13.13;9.10;;;;;;;;;;5147187;27;20058;-50
2024/01/08 08:04:21;;;;;;;9.68;7.10;;;;;;;;;;5146314;27;20054;-53
2024/01/08 08:06:48;;;;;;;9.77;7.28;;;;;;;;;;5146906;27;20059;-54
2024/01/08 08:09:14;;;;;;;9.52;7.40;;;;;;;;;;5147344;27;20051;-56
2024/01/08 08:11:41;;;;;;;8.80;6.35;;;;;;;;;;5139652;27;20488;-54
2024/01/08 08:14:08;;;;;;;8.27;6.28;;;;;;;;;;5136592;27;20399;-55
2024/01/08 08:16:35;;;;;;;13.93;9.10;;;;;;;;;;5144974;27;20469;-51
2024/01/08 08:19:02;;;;;;;9.88;7.20;;;;;;;;;;5144164;27;20392;-54
2024/01/08 08:21:31;;;;;;;8.15;6.15;;;;;;;;;;5146772;27;20046;-51
2024/01/08 08:23:58;;;;;;;8.48;6.07;;;;;;;;;;5146199;27;20042;-53
2024/01/08 08:26:25;;;;;;;8.55;5.90;;;;;;;;;;5144227;27;20047;-52
2024/01/08 08:28:52;;;;;;;8.70;5.95;;;;;;;;;;5146719;27;20043;-51
2024/01/08 08:31:19;;;;;;;7.38;5.95;;;;;;;;;;5144605;27;20507;-55
2024/01/08 08:33:46;;;;;;;8.52;5.43;;;;;;;;;;5144531;27;20384;-54
2024/01/08 08:36:12;;;;;;;6.50;5.00;;;;;;;;;;5144683;27;20047;-54
2024/01/08 08:38:40;;;;;;;6.85;5.10;;;;;;;;;;5148328;27;20062;-52
2024/01/08 08:41:07;;;;;;;7.40;4.72;;;;;;;;;;5147683;27;20462;-51
2024/01/08 08:43:34;;;;;;;7.32;5.25;;;;;;;;;;5149215;27;20062;-51
2024/01/08 08:46:01;;;;;;;5.95;4.82;;;;;;;;;;5150517;27;20055;-54
2024/01/08 08:48:28;;;;;;;5.97;4.50;;;;;;;;;;5151428;27;20491;-54
2024/01/08 08:50:54;;;;;;;5.82;4.10;;;;;;;;;;5148979;27;20051;-52
2024/01/08 08:53:21;;;;;;;5.60;3.88;;;;;;;;;;5151711;27;20050;-50
2024/01/08 08:55:49;;;;;;;4.60;3.25;;;;;;;;;;5149965;27;20049;-53
2024/01/08 08:58:16;;;;;;;5.82;3.70;;;;;;;;;;5151547;27;20058;-56
2024/01/08 09:00:43;;;;;;;4.70;3.50;;;;;;;;;;5148387;27;20034;-53
2024/01/08 09:03:10;;;;;;;4.13;2.90;;;;;;;;;;5151504;27;20394;-53
2024/01/08 09:05:37;;;;;;;5.60;3.25;;;;;;;;;;5151229;27;20063;-55
2024/01/08 09:08:04;;;;;;;4.40;3.33;;;;;;;;;;5149846;27;20470;-56
2024/01/08 09:10:31;;;;;;;4.30;3.38;;;;;;;;;;5149377;27;20061;-54
2024/01/08 09:12:59;;;;;;;8.57;5.70;;;;;;;;;;5151475;27;20479;-54
2024/01/08 09:15:25;;;;;;;8.05;5.38;;;;;;;;;;5148642;27;20042;-54
2024/01/08 09:17:52;;;;;;;5.30;3.75;;;;;;;;;;5150283;27;20061;-53
2024/01/08 09:20:19;;;;;;;7.90;4.43;;;;;;;;;;5149518;27;20048;-56
2024/01/08 09:22:46;;;;;;;5.07;3.40;;;;;;;;;;5143427;27;20043;-56
2024/01/08 09:25:13;;;;;;;11.57;6.00;;;;;;;;;;5150581;27;20058;-55
2024/01/08 09:27:42;;;;;;;4.93;3.38;;;;;;;;;;5149628;27;20062;-56
2024/01/08 09:30:10;;;;;;;8.02;4.50;;;;;;;;;;5150954;27;20050;-55
2024/01/08 09:32:37;;;;;;;5.07;3.83;;;;;;;;;;5145518;27;20051;-55
2024/01/08 09:35:04;;;;;;;5.82;3.80;;;;;;;;;;5148839;27;20050;-55
2024/01/08 09:37:31;;;;;;;6.18;4.40;;;;;;;;;;5148194;27;20050;-55
2024/01/08 09:39:58;;;;;;;5.63;4.30;;;;;;;;;;5149128;27;20050;-54
2024/01/08 09:42:26;;;;;;;6.28;4.13;;;;;;;;;;5149652;27;20051;-55
2024/01/08 09:44:54;;;;;;;6.07;3.90;;;;;;;;;;5150787;27;20046;-54
2024/01/08 09:47:22;;;;;;;5.85;4.22;;;;;;;;;;5148615;27;20049;-56
2024/01/08 09:49:49;;;;;;;5.50;3.83;;;;;;;;;;5150893;27;20057;-55
2024/01/08 09:52:17;;;;;;;4.75;4.00;;;;;;;;;;5150306;27;20050;-55
2024/01/08 09:54:44;;;;;;;5.47;3.65;;;;;;;;;;5149155;27;20047;-57
2024/01/08 09:57:11;;;;;;;5.07;4.43;;;;;;;;;;5147682;27;20062;-54
2024/01/08 09:59:38;;;;;;;8.88;4.95;;;;;;;;;;5147414;27;20051;-54
2024/01/08 10:02:05;;;;;;;7.30;5.72;;;;;;;;;;5148113;27;20077;-56
2024/01/08 10:04:32;;;;;;;9.48;7.15;;;;;;;;;;5147617;27;20464;-56
2024/01/08 10:07:06;;;;;;;12.57;8.23;;;;;;;;;;5150826;27;20058;-54
2024/01/08 10:09:33;;;;;;;6.72;4.70;;;;;;;;;;5149993;27;20050;-55
2024/01/08 10:12:00;;;;;;;6.25;4.25;;;;;;;;;;5150956;27;20487;-54
2024/01/08 10:14:27;;;;;;;7.85;5.18;;;;;;;;;;5149973;27;20047;-54
2024/01/08 10:16:54;;;;;;;6.13;4.43;;;;;;;;;;5149328;27;20054;-54
2024/01/08 10:19:23;;;;;;;4.20;2.88;;;;;;;;;;5149728;27;20042;-57
2024/01/08 10:22:06;;;;;;;3.88;3.22;;;;;;;;;;5147246;27;20061;-56
2024/01/08 10:24:33;;;;;;;4.05;2.97;;;;;;;;;;5141210;27;20066;-56
2024/01/08 10:26:59;;;;;;;4.95;3.10;;;;;;;;;;5144249;27;20054;-54
2024/01/08 10:29:26;;;;;;;5.25;3.38;;;;;;;;;;5148331;27;20039;-53
2024/01/08 10:31:53;;;;;;;4.00;3.05;;;;;;;;;;5141040;27;20062;-53
2024/01/08 10:34:21;;;;;;;5.78;2.97;;;;;;;;;;5139089;27;20050;-57
2024/01/08 10:36:49;;;;;;;4.22;2.85;;;;;;;;;;5141741;27;20046;-55
2024/01/08 10:39:18;;;;;;;4.10;2.90;;;;;;;;;;5148494;27;20051;-57
2024/01/08 10:41:44;;;;;;;3.50;2.60;;;;;;;;;;5140092;27;20046;-57
2024/01/08 10:44:11;;;;;;;5.15;3.05;;;;;;;;;;5146597;27;20054;-56
2024/01/08 10:46:44;;;;;;;4.45;3.13;;;;;;;;;;5140258;27;20510;-55
2024/01/08 10:49:15;;;;;;;4.00;3.00;;;;;;;;;;5145997;27;20047;-54
2024/01/08 10:51:44;;;;;;;4.18;3.00;;;;;;;;;;5147885;27;20483;-56
2024/01/08 10:54:11;;;;;;;4.38;3.10;;;;;;;;;;5140797;27;20058;-57
2024/01/08 10:56:39;;;;;;;3.40;2.83;;;;;;;;;;5141871;27;20054;-56
2024/01/08 10:59:08;;;;;;;6.60;4.30;;;;;;;;;;5149915;27;20487;-56
2024/01/08 11:01:36;;;;;;;4.55;3.38;;;;;;;;;;5141695;27;20050;-56
2024/01/08 11:04:03;;;;;;;5.22;4.22;;;;;;;;;;5145796;27;20055;-55
2024/01/08 11:06:31;;;;;;;4.60;3.47;;;;;;;;;;5141626;27;20063;-55
2024/01/08 11:08:58;;;;;;;4.35;3.05;;;;;;;;;;5144656;27;20051;-56
2024/01/08 11:11:26;;;;;;;4.45;3.00;;;;;;;;;;5146311;27;20061;-55
2024/01/08 11:13:56;;;;;;;6.90;3.80;;;;;;;;;;5146300;27;20392;-54
2024/01/08 11:16:28;;;;;;;6.35;4.40;;;;;;;;;;5145631;27;20042;-56
2024/01/08 11:19:24;;;;;;;7.13;4.60;;;;;;;;;;5146668;27;20042;-60
2024/01/08 11:21:51;;;;;;;4.57;3.40;;;;;;;;;;5146399;27;20384;-60
2024/01/08 11:24:18;;;;;;;3.88;3.17;;;;;;;;;;5148827;27;20055;-61
2024/01/08 11:26:47;;;;;;;3.90;3.00;;;;;;;;;;5146583;27;20050;-60
2024/01/08 11:29:16;;;;;;;3.08;2.65;;;;;;;;;;5147045;27;20480;-58
2024/01/08 11:32:00;;;;;;;4.03;3.20;;;;;;;;;;5144518;27;20042;-60
2024/01/08 11:34:53;;;;;;;3.60;2.80;;;;;;;;;;5145447;27;20412;-58
2024/01/08 11:37:31;;;;;;;3.95;3.10;;;;;;;;;;5147309;27;20054;-57
2024/01/08 11:39:58;;;;;;;4.45;3.53;;;;;;;;;;5144176;27;20399;-57
2024/01/08 11:42:24;;;;;;;4.05;2.97;;;;;;;;;;5146992;27;20046;-57
2024/01/08 11:44:53;;;;;;;3.97;3.47;;;;;;;;;;5142651;27;20424;-56
2024/01/08 11:47:18;;;;;;;4.85;3.20;;;;;;;;;;5142912;27;20046;-58
2024/01/08 11:49:45;;;;;;;4.25;3.20;;;;;;;;;;5142312;27;20046;-58
2024/01/08 11:52:12;;;;;;;5.75;3.30;;;;;;;;;;5148956;27;20403;-57
2024/01/08 11:54:40;;;;;;;5.93;3.42;;;;;;;;;;5148310;27;20059;-57
2024/01/08 11:57:09;;;;;;;4.22;3.00;;;;;;;;;;5147986;27;20062;-57
2024/01/08 11:59:36;;;;;;;4.20;3.20;;;;;;;;;;5145732;27;20057;-57
2024/01/08 12:02:14;;;;;;;4.30;3.35;;;;;;;;;;5144570;27;20058;-56
2024/01/08 12:04:42;;;;;;;4.68;3.80;;;;;;;;;;5147480;27;20047;-57
2024/01/08 12:07:10;;;;;;;4.60;3.10;;;;;;;;;;5149088;27;20065;-56
2024/01/08 12:09:37;;;;;;;4.60;3.87;;;;;;;;;;5142662;27;20054;-57
2024/01/08 12:12:04;;;;;;;4.55;3.60;;;;;;;;;;5148447;27;20058;-57
2024/01/08 12:14:31;;;;;;;4.45;3.20;;;;;;;;;;5142931;27;20058;-57
2024/01/08 12:16:58;;;;;;;4.40;3.78;;;;;;;;;;5138979;27;20058;-58
2024/01/08 12:19:36;;;;;;;4.68;3.47;;;;;;;;;;5144180;27;20058;-56
2024/01/08 12:22:03;;;;;;;6.30;4.07;;;;;;;;;;5147025;27;20803;-55
2024/01/08 12:24:29;;;;;;;5.05;3.58;;;;;;;;;;5145223;27;20050;-57
2024/01/08 12:27:01;;;;;;;3.92;3.38;;;;;;;;;;5142850;27;20066;-56
2024/01/08 12:29:27;;;;;;;4.65;3.63;;;;;;;;;;5149937;27;20046;-57
2024/01/08 12:31:58;;;;;;;4.80;3.92;;;;;;;;;;5146103;27;20047;-57
2024/01/08 12:34:27;;;;;;;4.22;3.42;;;;;;;;;;5143668;27;20065;-57
2024/01/08 12:36:55;;;;;;;5.60;4.25;;;;;;;;;;5144657;27;20051;-56
2024/01/08 12:39:23;;;;;;;5.15;4.07;;;;;;;;;;5145722;27;20042;-58
2024/01/08 12:41:50;;;;;;;6.28;4.03;;;;;;;;;;5143203;27;20543;-57
2024/01/08 12:44:17;;;;;;;4.43;3.45;;;;;;;;;;5145989;27;20402;-57
2024/01/08 12:46:44;;;;;;;5.13;4.03;;;;;;;;;;5144688;27;20791;-58
2024/01/08 12:49:13;;;;;;;4.68;3.78;;;;;;;;;;5141760;27;20392;-56
2024/01/08 12:51:40;;;;;;;4.53;3.92;;;;;;;;;;5145455;27;20058;-56
2024/01/08 12:54:08;;;;;;;5.10;3.35;;;;;;;;;;5145795;27;20054;-58
2024/01/08 12:56:36;;;;;;;5.82;3.83;;;;;;;;;;5143313;27;20054;-56
2024/01/08 12:59:02;;;;;;;5.22;4.03;;;;;;;;;;5144555;27;20510;-55
2024/01/08 13:01:30;;;;;;;6.43;4.32;;;;;;;;;;5140858;27;20055;-57
2024/01/08 13:03:56;;;;;;;5.00;4.20;;;;;;;;;;5144988;27;20055;-57
2024/01/08 13:06:23;;;;;;;4.60;3.45;;;;;;;;;;5144651;27;20058;-56
2024/01/08 13:08:50;;;;;;;4.50;3.45;;;;;;;;;;5146000;27;20050;-56
2024/01/08 13:11:19;;;;;;;5.40;3.75;;;;;;;;;;5149705;27;20043;-58
2024/01/08 13:13:46;;;;;;;4.43;3.50;;;;;;;;;;5145174;27;20411;-57
2024/01/08 13:16:13;;;;;;;5.43;4.10;;;;;;;;;;5143919;27;20057;-57
2024/01/08 13:18:40;;;;;;;3.97;3.55;;;;;;;;;;5142071;27;20055;-57
2024/01/08 13:21:07;;;;;;;4.78;4.10;;;;;;;;;;5144781;27;20050;-57
2024/01/08 13:23:35;;;;;;;4.97;4.22;;;;;;;;;;5145651;27;20050;-57
2024/01/08 13:26:02;;;;;;;6.13;5.07;;;;;;;;;;5141047;27;20054;-57
2024/01/08 13:28:30;;;;;;;7.50;6.90;;;;;;;;;;5146824;27;20463;-57
2024/01/08 13:30:57;;;;;;;5.82;5.00;;;;;;;;;;5145760;27;20050;-57
2024/01/08 13:33:25;;;;;;;4.90;4.40;;;;;;;;;;5144491;27;20054;-57
2024/01/08 13:35:54;;;;;;;4.35;3.78;;;;;;;;;;5143819;27;20046;-57
2024/01/08 13:38:21;;;;;;;5.93;4.68;;;;;;;;;;5150297;27;20061;-57
2024/01/08 13:40:47;;;;;;;5.68;4.05;;;;;;;;;;5144100;27;20062;-58
2024/01/08 13:43:14;;;;;;;6.10;4.18;;;;;;;;;;5146556;27;20054;-59
2024/01/08 13:45:42;;;;;;;6.57;4.60;;;;;;;;;;5144738;27;20062;-58
2024/01/08 13:48:11;;;;;;;5.10;4.40;;;;;;;;;;5144859;27;20050;-57
2024/01/08 13:50:38;;;;;;;5.07;4.10;;;;;;;;;;5144764;27;20526;-59
2024/01/08 13:53:05;;;;;;;5.88;4.50;;;;;;;;;;5144931;27;20058;-58
2024/01/08 13:55:32;;;;;;;4.50;3.67;;;;;;;;;;5143477;27;20042;-57
2024/01/08 13:57:58;;;;;;;10.48;7.28;;;;;;;;;;5142863;27;20059;-57
2024/01/08 14:00:25;;;;;;;5.68;4.40;;;;;;;;;;5142822;27;20050;-55
2024/01/08 14:02:54;;;;;;;7.80;5.30;;;;;;;;;;5144026;27;20062;-55
2024/01/08 14:05:20;;;;;;;6.07;3.88;;;;;;;;;;5147626;27;20054;-57
2024/01/08 14:07:47;;;;;;;7.32;5.40;;;;;;;;;;5144701;27;20047;-57
2024/01/08 14:10:14;;;;;;;4.78;4.03;;;;;;;;;;5142384;27;20059;-55
2024/01/08 14:12:41;;;;;;;6.07;5.00;;;;;;;;;;5144558;27;20042;-56
2024/01/08 14:15:10;;;;;;;5.43;4.40;;;;;;;;;;5143883;27;20423;-56
2024/01/08 14:17:38;;;;;;;9.63;5.97;;;;;;;;;;5146805;27;20522;-56
2024/01/08 14:20:08;;;;;;;6.30;4.15;;;;;;;;;;5144632;27;20074;-54
2024/01/08 14:22:35;;;;;;;9.05;4.97;;;;;;;;;;5143062;27;21598;-53
2024/01/08 14:25:02;;;;;;;7.47;5.00;;;;;;;;;;5144624;27;20410;-53
2024/01/08 14:27:29;;;;;;;8.68;5.50;;;;;;;;;;5142067;27;20043;-57
2024/01/08 14:29:55;;;;;;;8.40;5.28;;;;;;;;;;5142292;27;20046;-58
2024/01/08 14:32:24;;;;;;;6.45;4.65;;;;;;;;;;5141131;27;20043;-58
2024/01/08 14:34:51;;;;;;;6.07;4.32;;;;;;;;;;5143889;27;20054;-58
2024/01/08 14:37:19;;;;;;;8.05;4.32;;;;;;;;;;5140525;27;20059;-59
2024/01/08 14:39:46;;;;;;;6.70;4.50;;;;;;;;;;5144052;27;20047;-59
2024/01/08 14:42:13;;;;;;;6.15;4.82;;;;;;;;;;5144775;27;20043;-58
2024/01/08 14:44:40;;;;;;;7.18;4.90;;;;;;;;;;5147317;27;20046;-58